Time;durP1;ratioP1;P1;durP2;ratioP2;P2;SDS_P1;SDS_P2;PMS_P1;PMS_P2;Temp;Humidity;BMP_temperature;BMP_pressure;BME280_temperature;BME280_humidity;BME280_pressure;Samples;Min_cycle;Max_cycle;Signal;HPM_P1;HPM_P2
2023/05/10 00:01:47;;;;;;;;;;;17.30;98.80;;;17.45;65.59;98038.75;4892706;28;118772;-89
2023/05/10 00:04:15;;;;;;;;;;;16.20;98.50;;;17.35;65.37;98042.97;4895526;28;122662;-89
2023/05/10 00:06:45;;;;;;;;;;;17.20;99.00;;;17.26;65.74;98050.03;4893674;28;124338;-90
2023/05/10 00:09:13;;;;;;;;;;;17.10;99.00;;;17.17;65.94;98047.50;4878794;28;118656;-89
2023/05/10 00:11:45;;;;;;;;;;;17.00;99.00;;;17.13;65.96;98050.22;4892606;28;119955;-90
2023/05/10 00:14:34;;;;;;;;;;;16.90;99.00;;;17.08;65.96;98052.53;4897450;28;122616;-90
2023/05/10 00:17:02;;;;;;;;;;;16.90;99.00;;;17.01;66.06;98067.19;4905408;28;122956;-90
2023/05/10 00:19:40;;;;;;;;;;;16.90;99.10;;;16.94;65.98;98059.50;4875704;28;119211;-90
2023/05/10 00:22:06;;;;;;;;;;;16.80;99.00;;;16.90;65.81;98057.81;4875414;28;117998;-89
2023/05/10 00:24:34;;;;;;;;;;;16.80;98.90;;;16.88;65.77;98051.81;4862788;28;123524;-88
2023/05/10 00:27:00;;;;;;;;;;;16.80;98.90;;;16.85;66.04;98047.00;4846822;28;121840;-89
2023/05/10 00:29:34;;;;;;;;;;;16.70;98.80;;;16.81;65.64;98052.50;4862782;28;117975;-89
2023/05/10 00:32:08;;;;;;;;;;;16.70;98.80;;;16.79;65.63;98052.03;4871331;28;117489;-88
2023/05/10 00:34:43;;;;;;;;;;;16.60;98.70;;;16.75;65.54;98056.75;4847828;28;122794;-88
2023/05/10 00:37:27;;;;;;;;;;;16.60;98.70;;;16.69;65.41;98047.06;4863152;28;123801;-88
2023/05/10 00:39:54;;;;;;;;;;;16.50;98.60;;;16.66;65.42;98051.41;4872368;28;118703;-90
2023/05/10 00:42:33;;;;;;;;;;;16.00;98.40;;;16.62;65.78;98053.31;4894181;28;118679;-88
2023/05/10 00:45:00;;;;;;;;;;;16.50;98.60;;;16.58;65.49;98052.47;4852331;28;122575;-89
2023/05/10 00:47:48;;;;;;;;;;;16.40;98.50;;;16.55;65.29;98069.94;4867623;28;123064;-89
2023/05/10 00:50:15;;;;;;;;;;;16.40;98.50;;;16.50;65.33;98059.88;4859340;28;118874;-88
2023/05/10 00:52:59;;;;;;;;;;;16.40;98.50;;;16.48;65.36;98072.59;4861898;28;117530;-89
2023/05/10 00:55:37;;;;;;;;;;;16.30;98.50;;;16.45;65.55;98076.13;4901390;28;123255;-90
2023/05/10 00:58:30;;;;;;;;;;;16.30;98.50;;;16.43;65.58;98070.09;4898318;28;121940;-88
2023/05/10 01:01:02;;;;;;;;;;;16.30;98.50;;;16.43;65.54;98081.25;4910653;28;121144;-89
2023/05/10 01:03:29;;;;;;;;;;;16.30;98.60;;;16.43;65.45;98081.25;4900462;28;118185;-88
2023/05/10 01:06:23;;;;;;;;;;;16.30;98.60;;;16.39;65.49;98088.72;4912765;28;123731;-88
2023/05/10 01:12:53;;;;;;;;;;;16.20;98.60;;;16.28;65.56;98092.13;4899807;28;120950;-88
2023/05/10 01:15:36;;;;;;;;;;;16.20;98.60;;;16.21;65.65;98088.38;4870410;28;118170;-88
2023/05/10 01:18:14;;;;;;;;;;;16.10;98.60;;;16.20;65.74;98087.59;4875236;28;122550;-88
2023/05/10 01:21:04;;;;;;;;;;;16.10;98.60;;;16.22;65.47;98079.66;4866716;28;121912;-88
2023/05/10 01:24:11;;;;;;;;;;;16.10;98.60;;;16.21;65.56;98086.41;4896219;28;117687;-89
2023/05/10 01:26:59;;;;;;;;;;;16.10;98.70;;;16.22;65.58;98084.41;4840142;29;117023;-89
2023/05/10 01:30:13;;;;;;;;;;;17.80;99.40;;;16.18;65.43;98089.94;4830034;29;122298;-88
2023/05/10 01:32:42;;;;;;;;;;;16.00;98.60;;;16.18;65.50;98095.50;4809042;29;125152;-87
2023/05/10 01:35:32;;;;;;;;;;;16.00;98.60;;;16.21;65.78;98096.75;4817705;29;118907;-87
2023/05/10 01:38:07;;;;;;;;;;;16.00;98.60;;;16.19;65.12;98102.69;4826866;29;118736;-88
2023/05/10 01:40:41;;;;;;;;;;;16.00;98.60;;;16.20;65.55;98095.97;4815162;29;124366;-89
2023/05/10 01:43:27;;;;;;;;;;;16.00;98.60;;;16.20;65.49;98092.34;4820831;29;124647;-88
2023/05/10 01:46:10;;;;;;;;;;;16.00;98.90;;;16.21;65.60;98097.56;4803703;29;119291;-89
2023/05/10 01:48:48;;;;;;;;;;;16.10;98.70;;;16.22;65.23;98107.53;4819394;29;117996;-88
2023/05/10 01:51:35;;;;;;;;;;;16.00;98.60;;;16.23;65.21;98106.38;4820984;29;123431;-88
2023/05/10 01:54:31;;;;;;;;;;;16.00;98.60;;;16.25;65.35;98115.13;4818706;29;123887;-88
2023/05/10 01:57:09;;;;;;;;;;;16.10;98.60;;;16.26;65.30;98122.34;4821760;29;120049;-88
2023/05/10 01:59:40;;;;;;;;;;;16.10;98.60;;;16.26;65.18;98119.56;4817466;29;118998;-88
2023/05/10 02:02:32;;;;;;;;;;;16.00;98.50;;;16.25;65.08;98115.13;4822429;29;122920;-88
2023/05/10 02:05:18;;;;;;;;;;;16.10;98.50;;;16.22;65.17;98118.66;4885891;28;123674;-88
2023/05/10 02:07:44;;;;;;;;;;;16.00;98.40;;;16.22;65.13;98124.25;4860641;28;119144;-88
2023/05/10 02:10:13;;;;;;;;;;;16.10;98.50;;;16.26;65.14;98115.97;4892185;28;118300;-88
2023/05/10 02:12:49;;;;;;;;;;;16.10;98.50;;;16.29;64.75;98118.81;4882716;28;122389;-89
2023/05/10 02:15:23;;;;;;;;;;;16.00;98.50;;;16.32;65.08;98112.50;4902823;28;123524;-88
2023/05/10 02:18:10;;;;;;;;;;;16.10;98.60;;;16.37;64.96;98117.00;4896809;28;117661;-88
2023/05/10 02:20:47;;;;;;;;;;;16.10;98.50;;;16.40;64.94;98116.25;4897858;28;118391;-88
2023/05/10 02:23:14;;;;;;;;;;;16.10;98.50;;;16.44;64.94;98121.88;4897620;28;122706;-89
2023/05/10 02:25:43;;;;;;;;;;;16.10;98.50;;;16.46;64.83;98123.13;4912174;28;125072;-88
2023/05/10 02:28:28;;;;;;;;;;;16.20;98.60;;;16.48;64.78;98136.72;4912854;28;117836;-88
2023/05/10 02:31:14;;;;;;;;;;;16.10;98.50;;;16.48;64.75;98131.16;4910472;28;118121;-88
2023/05/10 02:33:50;;;;;;;;;;;16.20;98.50;;;16.47;64.48;98135.91;4893758;28;123623;-88
2023/05/10 02:36:21;;;;;;;;;;;16.20;98.50;;;16.46;64.77;98139.06;4895458;28;97862;-89
2023/05/10 02:38:50;;;;;;;;;;;16.20;98.40;;;16.50;64.60;98134.38;4891551;28;117748;-89
2023/05/10 02:41:22;;;;;;;;;;;16.20;98.40;;;16.51;64.71;98141.56;4912686;28;118866;-89
2023/05/10 02:43:56;;;;;;;;;;;16.20;98.40;;;16.50;64.71;98145.53;4891846;28;123158;-89
2023/05/10 02:46:24;;;;;;;;;;;16.20;98.40;;;16.50;64.46;98148.31;4915461;28;123566;-88
2023/05/10 02:49:08;;;;;;;;;;;16.20;98.30;;;16.48;64.49;98147.88;4901267;28;119652;-88
2023/05/10 02:51:59;;;;;;;;;;;16.20;98.30;;;16.48;64.64;98142.31;4882735;28;118181;-89
2023/05/10 02:54:41;;;;;;;;;;;16.20;98.40;;;16.49;64.35;98146.69;4894098;28;123974;-88
2023/05/10 02:57:28;;;;;;;;;;;16.20;98.30;;;16.47;64.31;98146.25;4889592;28;123366;-88
2023/05/10 02:59:55;;;;;;;;;;;16.20;98.30;;;16.45;64.41;98154.19;4882466;28;118002;-88
2023/05/10 03:02:26;;;;;;;;;;;16.20;98.20;;;16.44;64.34;98146.97;4909319;28;119097;-88
2023/05/10 03:05:03;;;;;;;;;;;16.20;98.20;;;16.43;64.06;98150.97;4895558;28;123442;-88
2023/05/10 03:07:43;;;;;;;;;;;16.10;98.20;;;16.40;64.45;98151.69;4902031;28;122205;-89
2023/05/10 03:10:15;;;;;;;;;;;16.20;98.20;;;16.38;64.19;98157.63;4908256;28;117826;-88
2023/05/10 03:13:19;;;;;;;;;;;16.10;98.10;;;16.31;64.16;98152.72;4913177;28;118428;-88
2023/05/10 03:16:26;;;;;;;;;;;16.10;98.10;;;16.25;64.13;98154.16;4920267;28;122838;-88
2023/05/10 03:19:47;;;;;;;;;;;16.10;98.10;;;16.17;64.59;98160.75;4912150;28;123540;-88
2023/05/10 03:22:26;;;;;;;;;;;16.00;98.10;;;16.17;64.68;98165.53;4879231;28;117484;-88
2023/05/10 03:25:00;;;;;;;;;;;16.00;98.20;;;16.15;64.65;98165.91;4876239;28;117927;-88
2023/05/10 03:27:34;;;;;;;;;;;16.00;98.20;;;16.13;64.70;98157.09;4877644;28;124391;-88
2023/05/10 03:30:11;;;;;;;;;;;15.90;98.20;;;16.10;64.80;98157.84;4875683;28;123816;-88
2023/05/10 03:32:47;;;;;;;;;;;15.90;98.20;;;16.07;64.63;98155.78;4879330;28;118915;-88
2023/05/10 03:35:16;;;;;;;;;;;15.90;98.20;;;16.06;64.94;98160.53;4879289;28;117926;-88
2023/05/10 03:37:47;;;;;;;;;;;15.90;98.20;;;16.07;64.54;98161.38;4862284;28;122139;-88
2023/05/10 03:40:13;;;;;;;;;;;15.90;98.20;;;16.08;64.62;98162.97;4848812;28;123541;-89
2023/05/10 03:42:51;;;;;;;;;;;15.90;98.10;;;16.06;64.68;98168.09;4868836;28;118263;-88
2023/05/10 03:45:30;;;;;;;;;;;15.80;98.10;;;16.06;64.62;98165.31;4859879;28;117821;-88
2023/05/10 03:48:03;;;;;;;;;;;15.80;98.10;;;16.05;64.76;98172.88;4863178;28;122722;-88
2023/05/10 03:50:43;;;;;;;;;;;15.90;98.20;;;16.04;64.58;98167.63;4862173;28;123292;-89
2023/05/10 03:53:15;;;;;;;;;;;15.90;98.20;;;16.06;64.78;98176.44;4862111;28;117594;-88
2023/05/10 03:55:48;;;;;;;;;;;15.80;98.20;;;16.04;64.83;98176.00;4862164;28;117900;-88
2023/05/10 03:58:22;;;;;;;;;;;15.80;98.20;;;16.02;64.39;98170.00;4869130;28;122453;-87
2023/05/10 04:00:58;;;;;;;;;;;15.80;98.20;;;15.98;64.69;98171.88;4913491;28;121822;-88
2023/05/10 04:03:27;;;;;;;;;;;15.80;98.30;;;15.96;64.72;98172.28;4908745;28;118841;-87
2023/05/10 04:06:07;;;;;;;;;;;15.70;98.30;;;15.94;64.76;98177.41;4884448;28;118073;-89
2023/05/10 04:08:41;;;;;;;;;;;15.70;98.30;;;15.89;65.11;98178.47;4897334;28;123721;-89
2023/05/10 04:11:31;;;;;;;;;;;15.70;98.40;;;15.82;65.14;98175.50;4905018;28;123990;-87
2023/05/10 04:13:59;;;;;;;;;;;15.70;98.60;;;15.78;65.24;98191.34;4912496;28;117717;-88
2023/05/10 04:16:26;;;;;;;;;;;15.60;98.40;;;15.76;65.84;98188.13;4913884;28;118396;-88
2023/05/10 04:18:52;;;;;;;;;;;15.60;98.40;;;15.75;65.44;98175.38;4894308;28;123236;-89
2023/05/10 04:21:21;;;;;;;;;;;15.60;98.40;;;15.76;65.52;98190.09;4913442;28;124090;-89
2023/05/10 04:23:52;;;;;;;;;;;15.60;98.50;;;15.75;65.51;98178.16;4914724;28;118598;-89
2023/05/10 04:26:23;;;;;;;;;;;15.50;98.50;;;15.75;65.67;98177.34;4915934;28;118867;-87
2023/05/10 04:28:56;;;;;;;;;;;15.60;98.60;;;15.77;65.95;98180.56;4915342;28;123385;-88
2023/05/10 04:31:22;;;;;;;;;;;15.60;98.70;;;15.77;65.75;98184.19;4914784;28;123681;-88
2023/05/10 04:33:49;;;;;;;;;;;15.60;98.70;;;15.79;65.96;98186.59;4910892;28;120611;-88
2023/05/10 04:36:17;;;;;;;;;;;15.50;98.70;;;15.81;65.91;98184.25;4896292;28;119260;-88
2023/05/10 04:38:48;;;;;;;;;;;15.50;98.70;;;15.81;65.65;98187.84;4895270;28;123644;-88
2023/05/10 04:41:14;;;;;;;;;;;15.50;98.80;;;15.83;65.97;98185.50;4895206;28;123501;-88
2023/05/10 04:43:40;;;;;;;;;;;15.60;98.80;;;15.85;65.83;98188.75;4889231;28;118461;-89
2023/05/10 04:46:09;;;;;;;;;;;15.60;99.20;;;15.88;65.89;98192.78;4893642;28;117976;-88
2023/05/10 04:48:48;;;;;;;;;;;15.60;98.80;;;15.92;65.68;98198.44;4898788;28;124226;-87
2023/05/10 04:51:20;;;;;;;;;;;15.60;98.80;;;15.94;65.73;98190.53;4895934;28;123146;-88
2023/05/10 04:53:48;;;;;;;;;;;15.60;98.90;;;15.95;65.79;98203.28;4886830;28;118255;-89
2023/05/10 04:56:15;;;;;;;;;;;15.60;98.80;;;15.97;65.59;98206.50;4909973;28;118956;-88
2023/05/10 04:58:43;;;;;;;;;;;15.70;98.90;;;15.99;65.55;98202.19;4902873;28;123216;-89
2023/05/10 05:01:10;;;;;;;;;;;15.70;98.90;;;16.01;65.49;98211.00;4911142;28;123845;-89
2023/05/10 05:03:36;;;;;;;;;;;15.70;98.90;;;16.03;65.75;98203.06;4909256;28;119564;-88
2023/05/10 05:06:03;;;;;;;;;;;15.70;98.80;;;16.06;65.49;98207.91;4908322;28;118574;-89
2023/05/10 05:08:29;;;;;;;;;;;15.80;98.90;;;16.07;65.71;98205.94;4905246;28;124227;-89
2023/05/10 05:10:59;;;;;;;;;;;15.80;98.80;;;16.08;65.51;98210.34;4905870;28;123296;-88
2023/05/10 05:13:38;;;;;;;;;;;15.80;98.90;;;16.09;65.34;98203.59;4910387;28;119486;-90
2023/05/10 05:16:05;;;;;;;;;;;15.80;98.90;;;16.10;65.17;98205.22;4898338;28;119210;-89
2023/05/10 05:18:31;;;;;;;;;;;15.80;98.80;;;16.10;65.44;98202.44;4906454;28;125051;-90
2023/05/10 05:20:59;;;;;;;;;;;15.80;98.80;;;16.13;65.50;98212.84;4903279;28;124056;-88
2023/05/10 05:23:30;;;;;;;;;;;15.80;98.90;;;16.14;65.44;98214.44;4912513;28;119802;-89
2023/05/10 05:25:57;;;;;;;;;;;15.90;98.90;;;16.16;65.28;98219.69;4895688;28;119069;-89
2023/05/10 05:28:26;;;;;;;;;;;15.80;98.90;;;16.16;65.54;98216.88;4896183;28;123547;-89
2023/05/10 05:30:52;;;;;;;;;;;15.90;98.90;;;16.16;65.02;98219.69;4895316;28;123286;-89
2023/05/10 05:33:19;;;;;;;;;;;15.80;98.70;;;16.17;64.95;98219.28;4903083;28;118744;-89
2023/05/10 05:35:50;;;;;;;;;;;15.90;98.80;;;16.22;65.30;98219.00;4908817;28;118987;-89
2023/05/10 05:38:18;;;;;;;;;;;15.90;98.70;;;16.26;65.08;98222.69;4894270;28;123478;-89
2023/05/10 05:40:45;;;;;;;;;;;14.50;98.10;;;16.28;64.55;98227.91;4909722;28;124668;-90
2023/05/10 05:43:12;;;;;;;;;;;16.00;98.70;;;16.29;64.63;98235.09;4910166;28;118605;-91
2023/05/10 05:45:42;;;;;;;;;;;15.90;98.60;;;16.29;64.68;98238.69;4909424;28;118707;-89
2023/05/10 05:48:08;;;;;;;;;;;15.90;98.60;;;16.27;64.67;98231.88;4893260;28;123948;-87
2023/05/10 05:50:35;;;;;;;;;;;16.70;98.90;;;16.27;64.57;98237.44;4902399;28;123907;-87
2023/05/10 05:53:02;;;;;;;;;;;16.00;98.50;;;16.28;64.71;98237.09;4907350;28;119279;-87
2023/05/10 05:55:32;;;;;;;;;;;16.00;98.50;;;16.34;64.58;98241.19;4891313;28;118283;-88
2023/05/10 05:57:59;;;;;;;;;;;16.00;98.50;;;16.38;64.33;98246.03;4907673;28;124278;-88
2023/05/10 06:00:27;;;;;;;;;;;16.10;98.60;;;16.39;64.84;98239.28;4895472;28;123651;-88
2023/05/10 06:02:54;;;;;;;;;;;16.10;98.50;;;16.43;64.54;98245.75;4898818;28;119001;-88
2023/05/10 06:05:21;;;;;;;;;;;16.00;98.40;;;16.43;64.50;98231.81;4907373;28;119077;-89
2023/05/10 06:07:47;;;;;;;;;;;16.10;98.50;;;16.46;64.13;98247.81;4897816;28;124993;-89
2023/05/10 06:10:14;;;;;;;;;;;16.10;98.40;;;16.44;64.00;98251.00;4909904;28;124290;-87
2023/05/10 06:12:40;;;;;;;;;;;16.10;98.40;;;16.42;64.32;98241.38;4907910;28;120427;-87
2023/05/10 06:15:08;;;;;;;;;;;16.00;98.40;;;16.44;64.21;98248.19;4895515;28;120041;-88
2023/05/10 06:17:34;;;;;;;;;;;16.10;98.40;;;16.43;64.08;98252.13;4910736;28;124010;-88
2023/05/10 06:20:01;;;;;;;;;;;16.10;98.30;;;16.44;64.59;98252.94;4909868;28;124397;-87
2023/05/10 06:22:27;;;;;;;;;;;16.10;98.30;;;16.46;64.19;98256.97;4910976;28;118681;-87
2023/05/10 06:24:53;;;;;;;;;;;16.10;98.30;;;16.50;64.20;98268.22;4911154;28;118930;-89
2023/05/10 06:27:19;;;;;;;;;;;16.20;98.30;;;16.50;63.92;98265.44;4907732;28;124413;-87
2023/05/10 06:29:46;;;;;;;;;;;16.20;98.30;;;16.47;64.03;98255.00;4908036;28;123878;-87
2023/05/10 06:32:12;;;;;;;;;;;16.10;98.20;;;16.46;63.99;98253.38;4908914;28;119469;-88
2023/05/10 06:34:38;;;;;;;;;;;16.20;98.20;;;16.49;64.15;98261.03;4907282;28;118633;-86
2023/05/10 06:37:05;;;;;;;;;;;16.10;98.20;;;16.44;64.13;98253.78;4906291;28;124852;-90
2023/05/10 06:39:31;;;;;;;;;;;16.20;98.20;;;16.45;64.22;98257.38;4907838;28;123699;-87
2023/05/10 06:41:57;;;;;;;;;;;16.20;98.30;;;16.43;64.35;98266.09;4896018;28;119940;-89
2023/05/10 06:44:24;;;;;;;;;;;16.10;98.20;;;16.42;64.58;98267.25;4908072;28;119258;-86
2023/05/10 06:46:52;;;;;;;;;;;16.20;98.40;;;16.40;64.97;98261.25;4898809;28;124089;-87
2023/05/10 06:49:18;;;;;;;;;;;16.20;98.50;;;16.43;64.59;98273.66;4887513;28;122618;-90
2023/05/10 06:51:48;;;;;;;;;;;16.10;98.50;;;16.44;64.86;98264.09;4907127;28;119570;-90
2023/05/10 06:54:14;;;;;;;;;;;16.10;98.50;;;16.46;64.66;98273.72;4907580;28;118940;-89
2023/05/10 06:56:40;;;;;;;;;;;16.20;98.50;;;16.44;64.47;98266.88;4908191;28;124177;-91
2023/05/10 06:59:07;;;;;;;;;;;16.20;98.40;;;16.47;64.48;98275.34;4895301;28;125073;-90
2023/05/10 07:01:33;;;;;;;;;;;16.10;98.30;;;16.48;64.43;98270.56;4903382;28;120952;-90
2023/05/10 07:04:00;;;;;;;;;;;16.20;98.40;;;16.50;64.20;98274.63;4908747;28;119849;-89
2023/05/10 07:06:27;;;;;;;;;;;16.20;98.40;;;16.51;64.26;98279.00;4906800;28;124284;-90
2023/05/10 07:08:53;;;;;;;;;;;16.20;98.40;;;16.50;64.32;98271.03;4909703;28;122873;-90
2023/05/10 07:11:20;;;;;;;;;;;16.20;98.30;;;16.54;64.12;98269.09;4908774;28;119664;-87
2023/05/10 07:13:46;;;;;;;;;;;16.20;98.20;;;16.54;63.81;98275.47;4906936;28;118874;-88
2023/05/10 07:16:12;;;;;;;;;;;16.20;98.20;;;16.56;63.84;98272.34;4908127;28;124403;-88
2023/05/10 07:18:38;;;;;;;;;;;16.20;98.10;;;16.59;63.73;98276.38;4905372;28;124487;-89
2023/05/10 07:21:05;;;;;;;;;;;16.20;98.10;;;16.62;63.84;98270.88;4905368;28;119029;-90
2023/05/10 07:23:31;;;;;;;;;;;16.30;98.20;;;16.66;63.70;98270.97;4896002;28;119391;-90
2023/05/10 07:25:57;;;;;;;;;;;16.30;98.10;;;16.71;63.89;98270.66;4902706;28;125005;-91
2023/05/10 07:28:24;;;;;;;;;;;16.40;98.20;;;16.77;63.79;98269.25;4902945;28;122100;-90
2023/05/10 07:30:51;;;;;;;;;;;16.40;98.10;;;16.84;63.25;98279.72;4896835;28;119781;-89
2023/05/10 07:33:17;;;;;;;;;;;16.40;98.10;;;16.87;63.32;98281.78;4897417;28;119786;-89
2023/05/10 07:35:44;;;;;;;;;;;16.50;98.10;;;16.92;63.22;98278.69;4901170;28;124221;-90
2023/05/10 07:38:10;;;;;;;;;;;16.50;98.10;;;16.98;63.11;98288.41;4904032;28;123929;-91
2023/05/10 07:40:37;;;;;;;;;;;16.50;98.00;;;17.02;63.07;98286.47;4908262;28;118875;-90
2023/05/10 07:43:04;;;;;;;;;;;16.60;98.00;;;17.07;62.91;98280.59;4900779;28;118585;-91
2023/05/10 07:45:30;;;;;;;;;;;16.60;97.90;;;17.15;62.65;98293.53;4904183;28;124393;-90
2023/05/10 07:47:57;;;;;;;;;;;16.70;97.90;;;17.21;62.47;98283.66;4892844;28;124078;-88
2023/05/10 07:50:25;;;;;;;;;;;16.80;97.90;;;17.28;62.28;98285.81;4897235;28;120397;-89
2023/05/10 07:52:54;;;;;;;;;;;16.80;97.80;;;17.35;61.74;98299.88;4902035;28;119742;-89
2023/05/10 07:55:23;;;;;;;;;;;16.90;97.60;;;17.37;61.44;98294.75;4893747;28;124040;-89
2023/05/10 07:57:50;;;;;;;;;;;16.90;97.30;;;17.40;61.09;98287.59;4893474;28;123537;-91
2023/05/10 08:00:19;;;;;;;;;;;17.00;97.20;;;17.45;60.89;98295.69;4903881;28;119547;-88
2023/05/10 08:02:47;;;;;;;;;;;17.00;97.00;;;17.45;60.30;98290.09;4907459;28;118830;-88
2023/05/10 08:05:13;;;;;;;;;;;17.10;96.70;;;17.43;60.23;98303.63;4908951;28;123974;-91
2023/05/10 08:07:39;;;;;;;;;;;17.00;96.50;;;17.46;60.05;98300.09;4905920;28;124746;-91
2023/05/10 08:10:06;;;;;;;;;;;17.10;96.60;;;17.48;60.16;98302.53;4910579;28;119446;-91
2023/05/10 08:12:35;;;;;;;;;;;17.10;96.40;;;17.49;60.07;98295.75;4899615;28;118400;-90
2023/05/10 08:15:01;;;;;;;;;;;17.10;96.30;;;17.48;59.58;98300.53;4903316;28;124232;-89
2023/05/10 08:17:28;;;;;;;;;;;17.10;96.10;;;17.47;59.05;98298.13;4907451;28;124637;-89
2023/05/10 08:19:54;;;;;;;;;;;17.20;95.90;;;17.43;58.76;98300.81;4905702;28;119463;-89
2023/05/10 08:22:21;;;;;;;;;;;17.10;95.50;;;17.40;58.87;98305.16;4892258;28;117926;-88
2023/05/10 08:24:51;;;;;;;;;;;17.10;95.60;;;17.44;58.58;98294.09;4906829;28;124478;-89
2023/05/10 08:27:18;;;;;;;;;;;17.20;95.50;;;17.46;58.91;98297.28;4907493;28;122620;-91
2023/05/10 08:29:44;;;;;;;;;;;16.70;95.40;;;17.51;58.72;98298.97;4905548;28;119010;-90
2023/05/10 08:32:11;;;;;;;;;;;17.20;95.50;;;17.57;59.00;98309.50;4920114;28;118545;-90
2023/05/10 08:34:39;;;;;;;;;;;17.20;95.60;;;17.62;58.92;98302.78;4900194;28;124704;-89
2023/05/10 08:37:06;;;;;;;;;;;17.20;95.60;;;17.67;58.47;98308.84;4899957;28;124235;-90
2023/05/10 08:39:37;;;;;;;;;;;18.30;95.90;;;17.71;58.37;98313.72;4908047;28;120853;-89
2023/05/10 08:42:08;;;;;;;;;;;17.30;95.50;;;17.72;58.43;98309.75;4913165;28;120047;-90
2023/05/10 08:44:36;;;;;;;;;;;17.30;95.30;;;17.70;58.25;98306.50;4912602;28;123854;-91
2023/05/10 08:47:09;;;;;;;;;;;17.30;95.30;;;17.74;58.09;98310.19;4908938;28;123972;-90
2023/05/10 08:49:37;;;;;;;;;;;17.40;95.20;;;17.74;57.83;98312.97;4897512;28;119421;-88
2023/05/10 08:52:05;;;;;;;;;;;17.40;95.10;;;17.75;57.35;98314.59;4904737;28;118661;-89
2023/05/10 08:54:34;;;;;;;;;;;17.40;94.80;;;17.78;56.78;98325.81;4907566;28;123895;-89
2023/05/10 08:57:00;;;;;;;;;;;17.40;94.50;;;17.78;56.79;98313.84;4902773;28;124316;-94
2023/05/10 08:59:29;;;;;;;;;;;17.40;94.50;;;17.83;56.58;98321.94;4893363;28;118565;-88
2023/05/10 09:01:58;;;;;;;;;;;17.50;94.40;;;17.85;56.14;98319.59;4903735;28;118935;-89
2023/05/10 09:04:25;;;;;;;;;;;17.50;94.20;;;17.86;56.09;98321.19;4909740;28;124253;-92
2023/05/10 09:06:51;;;;;;;;;;;17.60;94.10;;;17.88;55.92;98328.03;4900756;28;124583;-89
2023/05/10 09:09:18;;;;;;;;;;;17.50;93.90;;;17.90;55.90;98324.88;4909866;28;120116;-90
2023/05/10 09:11:44;;;;;;;;;;;17.60;94.00;;;17.93;55.98;98323.31;4901975;28;118041;-88
2023/05/10 09:14:12;;;;;;;;;;;16.50;93.40;;;17.96;55.77;98328.16;4900186;28;124243;-91
2023/05/10 09:16:39;;;;;;;;;;;17.60;93.90;;;17.99;55.54;98335.78;4900600;28;123611;-88
2023/05/10 09:19:06;;;;;;;;;;;17.60;93.70;;;18.02;54.61;98335.03;4894638;28;119004;-87
2023/05/10 09:21:36;;;;;;;;;;;17.60;93.20;;;17.98;53.26;98332.19;4899429;28;118768;-87
2023/05/10 09:24:04;;;;;;;;;;;17.60;92.50;;;17.95;53.31;98338.53;4893367;28;123992;-88
2023/05/10 09:26:31;;;;;;;;;;;17.60;92.40;;;17.88;53.65;98336.41;4908982;28;123426;-89
2023/05/10 09:28:59;;;;;;;;;;;17.50;92.50;;;17.85;53.15;98339.94;4908321;28;119802;-90
2023/05/10 09:31:51;;;;;;;;;;;17.50;92.10;;;17.80;53.19;98339.47;4890872;28;119916;-91
2023/05/10 09:34:19;;;;;;;;;;;17.50;92.10;;;17.79;53.42;98337.84;4903447;28;124869;-90
2023/05/10 09:37:04;;;;;;;;;;;17.50;92.10;;;17.78;53.39;98341.78;4897177;28;124126;-90
2023/05/10 09:39:35;;;;;;;;;;;17.50;92.10;;;17.80;53.29;98343.06;4902008;28;119627;-91
2023/05/10 09:42:06;;;;;;;;;;;17.50;92.20;;;17.84;53.49;98338.34;4902647;28;118049;-90
2023/05/10 09:44:33;;;;;;;;;;;17.50;92.20;;;17.86;53.47;98338.75;4899439;28;123577;-91
2023/05/10 09:47:01;;;;;;;;;;;17.00;92.00;;;17.92;53.49;98347.66;4892546;28;124290;-90
2023/05/10 09:49:27;;;;;;;;;;;17.60;92.20;;;17.98;53.41;98342.56;4893308;28;119622;-91
2023/05/10 09:52:07;;;;;;;;;;;17.60;92.20;;;18.01;52.80;98348.22;4904634;28;118939;-89
2023/05/10 09:54:34;;;;;;;;;;;17.60;91.80;;;18.03;53.02;98337.47;4906363;28;124899;-90
2023/05/10 09:57:00;;;;;;;;;;;17.70;92.10;;;18.12;53.39;98344.78;4901259;28;123868;-89
2023/05/10 09:59:27;;;;;;;;;;;17.80;92.10;;;18.17;52.98;98342.50;4908907;28;117868;-89
2023/05/10 10:01:58;;;;;;;;;;;17.80;92.10;;;18.23;52.73;98343.78;4910643;28;117676;-92
2023/05/10 10:04:25;;;;;;;;;;;17.80;91.90;;;18.23;52.33;98342.97;4907458;28;124726;-90
2023/05/10 10:07:02;;;;;;;;;;;17.90;91.70;;;18.20;52.36;98346.53;4904367;28;123796;-91
2023/05/10 10:09:29;;;;;;;;;;;17.80;91.60;;;18.21;52.45;98339.75;4903265;28;119323;-92
2023/05/10 10:11:56;;;;;;;;;;;17.90;91.60;;;18.22;52.21;98346.97;4892082;28;116992;-90
2023/05/10 10:14:26;;;;;;;;;;;17.90;91.50;;;18.24;52.42;98342.63;4907315;28;125177;-90
2023/05/10 10:16:52;;;;;;;;;;;17.90;91.60;;;18.22;52.35;98349.75;4908213;28;123218;-91
2023/05/10 10:19:21;;;;;;;;;;;17.90;91.40;;;18.19;51.67;98344.91;4883534;28;119311;-91
2023/05/10 10:21:49;;;;;;;;;;;17.80;91.20;;;18.18;51.99;98340.50;4902254;28;119719;-91
2023/05/10 10:24:16;;;;;;;;;;;17.80;91.20;;;18.19;52.03;98336.50;4893817;28;124844;-91
2023/05/10 10:26:43;;;;;;;;;;;17.80;91.30;;;18.22;51.92;98327.41;4892575;28;123904;-90
2023/05/10 10:29:15;;;;;;;;;;;17.90;91.40;;;18.22;51.59;98325.41;4903460;28;119524;-89
2023/05/10 10:31:50;;;;;;;;;;;17.90;91.10;;;18.28;51.58;98328.69;4893581;28;119481;-88
2023/05/10 10:34:29;;;;;;;;;;;17.90;91.10;;;18.34;51.81;98335.56;4901729;28;124323;-90
2023/05/10 10:36:56;;;;;;;;;;;18.00;91.20;;;18.40;51.76;98336.84;4897527;28;123586;-89
2023/05/10 10:39:26;;;;;;;;;;;18.00;91.10;;;18.43;51.09;98341.72;4900677;28;119550;-89
2023/05/10 10:41:54;;;;;;;;;;;18.10;90.90;;;18.47;51.16;98331.38;4904690;28;118963;-92
2023/05/10 10:44:37;;;;;;;;;;;18.10;90.80;;;18.49;50.90;98336.59;4901922;28;124303;-88
2023/05/10 10:47:27;;;;;;;;;;;18.10;91.00;;;18.49;51.21;98337.41;4902435;28;123831;-88
2023/05/10 10:49:59;;;;;;;;;;;18.10;90.90;;;18.52;51.11;98347.03;4908050;28;119802;-88
2023/05/10 10:52:32;;;;;;;;;;;18.10;90.90;;;18.51;51.13;98343.44;4908706;28;119126;-86
2023/05/10 10:55:01;;;;;;;;;;;18.10;90.70;;;18.50;49.70;98343.81;4906126;28;126364;-88
2023/05/10 10:57:30;;;;;;;;;;;18.00;90.00;;;18.42;49.00;98347.66;4908024;28;123429;-88
2023/05/10 11:00:22;;;;;;;;;;;18.00;89.30;;;18.31;48.58;98347.50;4903727;28;119394;-87
2023/05/10 11:02:58;;;;;;;;;;;18.00;88.10;;;18.21;47.80;98354.53;4907770;28;117944;-88
2023/05/10 11:05:43;;;;;;;;;;;17.90;86.80;;;18.13;47.88;98350.00;4895581;28;124519;-89
2023/05/10 11:08:12;;;;;;;;;;;17.80;86.60;;;18.06;48.44;98361.88;4907736;28;124073;-89
2023/05/10 11:10:39;;;;;;;;;;;17.80;87.30;;;18.04;48.40;98366.22;4897215;28;120420;-88
2023/05/10 11:13:07;;;;;;;;;;;17.70;86.80;;;17.98;47.86;98357.34;4899745;28;119829;-90
2023/05/10 11:15:34;;;;;;;;;;;17.70;86.60;;;17.92;48.10;98370.03;4898086;28;124262;-90
2023/05/10 11:18:16;;;;;;;;;;;17.60;87.10;;;17.85;48.30;98364.31;4903711;28;123794;-88
2023/05/10 11:20:42;;;;;;;;;;;17.60;86.50;;;17.85;48.26;98364.31;4902354;28;119677;-88
2023/05/10 11:23:15;;;;;;;;;;;17.60;86.60;;;17.85;48.41;98358.72;4900501;28;117858;-88
2023/05/10 11:25:47;;;;;;;;;;;17.50;86.90;;;17.88;48.66;98364.34;4899486;28;124440;-88
2023/05/10 11:28:16;;;;;;;;;;;17.60;87.20;;;17.94;48.86;98367.66;4919580;28;123075;-87
2023/05/10 11:30:43;;;;;;;;;;;17.60;87.60;;;17.98;49.14;98356.56;4906261;28;120004;-88
2023/05/10 11:33:15;;;;;;;;;;;17.60;87.70;;;18.02;48.97;98354.59;4906978;28;118088;-87
2023/05/10 11:35:41;;;;;;;;;;;17.70;87.90;;;18.04;49.34;98355.84;4902950;28;124900;-88